Limassol, Cyprus
Current Conditions -  °F | °C
As of 6:50 AM on Wednesday 26 Nov 2014 (Local Time) from LCRA Reporting Station
Few Clouds Few Clouds  
Wind Chill: 50°   Ceiling: Unl
Heat Index: 50°   Visibility: 6mi
Dew Point: 43°   Wind: 6mph
Humidity: 76%   Direction: 310°NW
Pressure: 29.71"   Gusts: NA
Location:  34.76°N, 32.95°E
Report Text: LCRA 260350Z 31005KT 9999 FEW035CB 10/06 Q1006 TEMPO 7000 SHRA
Loading
Personal Weather Stations






























Interactive Weather Map New forecast layout! Learn more

10-Day Weather Forecast

Advertisements
Track Severe Weather on mobile